Time;durP1;ratioP1;P1;durP2;ratioP2;P2;SDS_P1;SDS_P2;PMS_P1;PMS_P2;Temp;Humidity;BMP_temperature;BMP_pressure;BME280_temperature;BME280_humidity;BME280_pressure;Samples;Min_cycle;Max_cycle;Signal;HPM_P1;HPM_P2
2021/09/16 06:27:54;;;;;;;13.70;5.70;;;;;;;15.99;51.25;101041.22;1728590;79;21661;-67
2021/09/16 06:30:21;;;;;;;13.53;5.42;;;;;;;16.09;51.09;101040.84;1721041;80;20972;-67
2021/09/16 06:32:49;;;;;;;9.30;5.10;;;;;;;16.16;50.83;101046.13;1730005;81;21005;-67
2021/09/16 06:35:16;;;;;;;9.50;4.70;;;;;;;16.23;50.26;101048.71;1726109;81;20973;-67
2021/09/16 06:40:43;;;;;;;10.10;4.70;;;;;;;16.39;49.65;101047.82;1736597;80;21114;-67
2021/09/16 06:43:12;;;;;;;10.90;5.22;;;;;;;16.46;49.25;101049.05;1735867;81;21422;-68
2021/09/16 06:45:39;;;;;;;9.33;4.47;;;;;;;16.54;48.75;101047.89;1721751;81;21046;-67
2021/09/16 06:48:06;;;;;;;10.03;4.15;;;;;;;16.65;48.13;101051.59;1696268;82;21039;-67
2021/09/16 06:50:33;;;;;;;9.98;3.67;;;;;;;16.75;47.48;101053.41;1665451;83;21025;-66
2021/09/16 06:53:00;;;;;;;12.10;3.90;;;;;;;16.84;46.89;101052.63;1689750;82;22472;-66
2021/09/16 06:55:28;;;;;;;10.88;4.42;;;;;;;16.95;45.73;101049.89;1696184;82;21013;-67
2021/09/16 06:57:55;;;;;;;8.80;3.80;;;;;;;17.09;45.37;101047.37;1688918;82;21988;-67
2021/09/16 07:00:23;;;;;;;7.10;3.25;;;;;;;17.23;44.56;101061.06;1719571;81;21008;-67
2021/09/16 07:02:50;;;;;;;8.80;3.30;;;;;;;17.32;42.66;101056.23;1729615;81;20999;-66
2021/09/16 07:05:18;;;;;;;5.30;3.00;;;;;;;17.41;42.46;101060.86;1738781;80;21040;-66
2021/09/16 07:07:45;;;;;;;5.95;2.92;;;;;;;17.48;41.76;101055.27;1727206;80;20968;-69
2021/09/16 07:10:12;;;;;;;6.50;3.22;;;;;;;17.54;42.20;101062.38;1724299;81;21474;-69
2021/09/16 07:12:41;;;;;;;6.03;3.05;;;;;;;17.64;41.64;101059.75;1720243;80;20970;-67
2021/09/16 07:15:09;;;;;;;4.45;2.20;;;;;;;17.75;42.33;101058.82;1730743;81;21542;-66
2021/09/16 07:17:37;;;;;;;5.25;2.17;;;;;;;17.88;41.27;101054.87;1737475;80;21943;-67
2021/09/16 07:20:06;;;;;;;6.37;2.98;;;;;;;17.99;40.99;101052.57;1728227;81;21546;-67
2021/09/16 07:22:33;;;;;;;6.65;2.58;;;;;;;18.07;40.27;101052.27;1724387;81;21047;-66
2021/09/16 07:25:00;;;;;;;6.95;2.60;;;;;;;18.17;40.40;101048.23;1697026;81;20986;-66
2021/09/16 07:27:30;;;;;;;5.90;2.60;;;;;;;18.24;40.51;101045.33;1655488;83;21003;-67
2021/09/16 07:29:57;;;;;;;5.78;2.08;;;;;;;18.32;40.97;101054.11;1733240;80;21125;-67
2021/09/16 07:32:24;;;;;;;4.28;2.67;;;;;;;18.36;41.67;101046.06;1727998;81;22051;-66
2021/09/16 07:34:51;;;;;;;7.87;2.70;;;;;;;18.40;40.92;101042.08;1699185;83;21008;-67
2021/09/16 07:37:18;;;;;;;5.67;2.83;;;;;;;18.41;40.53;101043.28;1689384;81;21038;-67
2021/09/16 07:39:45;;;;;;;6.00;2.60;;;;;;;18.44;41.08;101044.36;1665007;83;21000;-67
2021/09/16 07:42:12;;;;;;;5.03;2.80;;;;;;;18.57;41.36;101046.34;1730691;81;22390;-67
2021/09/16 07:44:39;;;;;;;4.90;2.50;;;;;;;18.71;41.42;101046.94;1732947;81;20992;-67
2021/09/16 07:47:08;;;;;;;7.62;2.47;;;;;;;18.79;41.15;101049.82;1732764;80;20979;-67
2021/09/16 07:49:35;;;;;;;6.60;2.62;;;;;;;18.80;41.17;101051.55;1722804;81;21002;-66
2021/09/16 07:52:02;;;;;;;5.15;2.30;;;;;;;18.82;41.13;101049.04;1733746;80;20974;-68
2021/09/16 07:54:29;;;;;;;6.95;2.40;;;;;;;18.88;42.00;101040.81;1732388;80;21771;-69
2021/09/16 07:56:57;;;;;;;3.92;2.00;;;;;;;19.03;41.96;101042.12;1726650;80;21464;-67
2021/09/16 07:59:27;;;;;;;5.40;1.82;;;;;;;19.13;41.53;101038.91;1726880;81;21019;-67
2021/09/16 08:01:56;;;;;;;4.92;2.00;;;;;;;19.15;41.45;101040.96;1728392;80;21018;-66
2021/09/16 08:04:23;;;;;;;5.70;2.00;;;;;;;19.10;41.43;101037.30;1728213;80;20968;-67
2021/09/16 08:06:50;;;;;;;3.50;1.85;;;;;;;19.03;41.63;101034.80;1726647;81;21104;-66
2021/09/16 08:09:17;;;;;;;5.15;1.87;;;;;;;18.95;41.77;101032.45;1730495;80;21685;-67
2021/09/16 08:11:45;;;;;;;4.20;1.72;;;;;;;18.85;41.89;101035.67;1724111;81;21026;-69
2021/09/16 08:14:12;;;;;;;4.50;1.87;;;;;;;18.74;42.21;101038.54;1736553;81;21027;-67
2021/09/16 08:16:39;;;;;;;3.62;1.40;;;;;;;18.68;42.38;101037.72;1693799;82;21038;-70
2021/09/16 08:19:07;;;;;;;10.65;3.33;;;;;;;18.72;42.34;101030.52;1696237;82;21065;-68
2021/09/16 08:21:34;;;;;;;4.00;1.98;;;;;;;18.87;41.53;101025.02;1699837;81;21476;-68
2021/09/16 08:24:01;;;;;;;3.60;2.10;;;;;;;19.01;40.92;101024.59;1687199;83;21069;-68
2021/09/16 08:26:29;;;;;;;7.12;2.00;;;;;;;19.06;41.13;101023.68;1688269;83;21011;-68
2021/09/16 08:28:56;;;;;;;5.75;1.92;;;;;;;19.11;40.96;101028.16;1689008;82;21001;-68
2021/09/16 08:31:23;;;;;;;7.00;2.10;;;;;;;19.16;40.09;101029.94;1694562;82;21108;-69
2021/09/16 08:33:50;;;;;;;6.83;2.20;;;;;;;19.25;40.45;101013.78;1690505;83;21031;-69
2021/09/16 08:36:17;;;;;;;5.30;2.35;;;;;;;19.43;40.73;101005.28;1695778;82;21897;-68
2021/09/16 08:38:45;;;;;;;4.12;2.10;;;;;;;19.77;40.21;101009.66;1693059;83;21005;-68
2021/09/16 08:41:12;;;;;;;5.28;1.87;;;;;;;20.08;39.85;101003.81;1703641;81;21038;-71
2021/09/16 08:43:42;;;;;;;5.92;1.95;;;;;;;20.30;38.73;101005.29;1688741;83;21115;-69
2021/09/16 08:46:08;;;;;;;4.45;1.72;;;;;;;20.32;38.47;100995.09;1690445;83;21030;-69
2021/09/16 08:48:35;;;;;;;6.92;2.12;;;;;;;20.24;38.64;100998.20;1680869;83;21043;-70
2021/09/16 08:51:05;;;;;;;5.05;1.98;;;;;;;20.11;38.61;100995.84;1674505;84;20997;-70
2021/09/16 08:53:34;;;;;;;5.47;1.92;;;;;;;19.94;38.99;100996.64;1686400;82;21859;-71
2021/09/16 08:56:01;;;;;;;6.22;2.10;;;;;;;19.93;39.37;100994.92;1665019;83;22186;-69
2021/09/16 08:58:29;;;;;;;9.35;2.45;;;;;;;19.98;39.11;100993.48;1736626;81;20960;-70
2021/09/16 09:00:56;;;;;;;13.80;2.08;;;;;;;20.06;38.75;101000.37;1678455;83;21063;-69
2021/09/16 09:03:23;;;;;;;6.42;2.17;;;;;;;20.16;38.65;100990.29;1678856;83;21047;-69
2021/09/16 09:05:50;;;;;;;6.47;2.10;;;;;;;20.24;38.21;100990.04;1678490;83;21069;-69
2021/09/16 09:08:23;;;;;;;10.15;2.10;;;;;;;20.16;38.21;100983.48;1682520;83;21116;-70
2021/09/16 09:10:58;;;;;;;3.87;1.73;;;;;;;20.09;37.71;100989.67;1685525;83;20995;-71
2021/09/16 09:13:32;;;;;;;5.08;1.40;;;;;;;19.96;37.73;100991.39;1682395;83;21029;-69
2021/09/16 09:16:06;;;;;;;1.92;1.37;;;;;;;19.81;38.14;100993.41;1678438;83;21534;-70
2021/09/16 09:18:48;;;;;;;7.85;1.70;;;;;;;19.73;38.50;100988.70;1684268;83;21444;-70
2021/09/16 09:21:16;;;;;;;5.62;2.10;;;;;;;19.81;38.01;100987.97;1739506;81;21105;-69
2021/09/16 09:23:55;;;;;;;3.33;1.70;;;;;;;19.93;38.04;100974.02;1742063;81;21054;-70
2021/09/16 09:26:29;;;;;;;6.17;2.00;;;;;;;20.12;37.91;100980.71;1707096;82;21011;-69
2021/09/16 09:29:12;;;;;;;4.15;2.00;;;;;;;20.33;37.97;100979.13;1731241;80;21372;-70
2021/09/16 09:31:43;;;;;;;5.33;1.80;;;;;;;20.53;36.51;100978.48;1714713;81;21003;-70
